Mary's Harbour Airport

CYMH | YMH

Mary's Harbour , Newfoundland and Labrador , Canada

Sunday, June 7th, 2020 | 02:29

Weather

CYMH 070400Z AUTO 25002KT 9SM CLR 05/03 A2977 RMK SLP084

Charts

No Charts Available

Gates

No Gates Available

Runways

1 Available

Active ATC

Events -Coming Soon-

1 Events Coming Up Soon

Next event:
CYMH Flyout